Time;durP1;ratioP1;P1;durP2;ratioP2;P2;SDS_P1;SDS_P2;PMS_P1;PMS_P2;Temp;Humidity;BMP_temperature;BMP_pressure;BME280_temperature;BME280_humidity;BME280_pressure;Samples;Min_cycle;Max_cycle;Signal;HPM_P1;HPM_P2
2023/09/01 00:05:03;;;;;;;37.63;20.53;;;;;;;26.91;99.64;99801.47;31410024;28;20461;-79
2023/09/01 00:20:05;;;;;;;33.03;19.87;;;;;;;26.77;98.92;99800.72;31424733;28;20072;-80
2023/09/01 00:35:08;;;;;;;31.95;19.35;;;;;;;26.80;95.44;99797.63;31404159;28;20052;-80
2023/09/01 00:50:11;;;;;;;31.33;19.17;;;;;;;26.76;89.35;99819.47;31406149;28;20049;-82
2023/09/01 01:05:15;;;;;;;34.70;18.73;;;;;;;26.72;85.07;99835.00;31412753;28;20405;-80
2023/09/01 01:20:38;;;;;;;34.83;18.63;;;;;;;26.59;82.74;99838.56;31396857;28;20045;-80
2023/09/01 01:36:14;;;;;;;31.77;17.97;;;;;;;26.41;79.53;99833.84;31388362;28;20132;-81
2023/09/01 01:51:16;;;;;;;28.75;18.08;;;;;;;26.46;76.73;99830.94;31374598;28;20052;-79
2023/09/01 02:06:18;;;;;;;29.45;16.73;;;;;;;26.67;73.38;99830.31;31413125;28;20049;-80
2023/09/01 02:21:21;;;;;;;28.97;15.40;;;;;;;26.51;70.13;99826.56;31416112;28;20040;-80
2023/09/01 02:36:24;;;;;;;26.23;12.63;;;;;;;26.45;68.16;99850.97;31428154;28;20056;-81
2023/09/01 02:51:26;;;;;;;35.78;13.40;;;;;;;26.56;67.05;99870.25;31414497;28;20067;-80
2023/09/01 03:06:29;;;;;;;28.87;12.93;;;;;;;26.50;66.55;99889.06;31405203;28;20111;-80
2023/09/01 03:21:31;;;;;;;32.23;13.17;;;;;;;26.40;66.32;99876.88;31391424;28;20118;-80
2023/09/01 03:36:33;;;;;;;30.67;13.93;;;;;;;26.39;65.76;99858.66;31411379;28;20044;-79
2023/09/01 03:51:35;;;;;;;27.23;12.77;;;;;;;26.32;65.83;99868.41;31418888;28;20091;-80
2023/09/01 04:06:38;;;;;;;33.27;14.30;;;;;;;26.66;66.70;99882.47;31416609;28;20049;-80
2023/09/01 04:21:40;;;;;;;23.88;12.02;;;;;;;26.99;65.40;99866.38;31401839;28;20076;-81
2023/09/01 04:36:42;;;;;;;28.13;12.83;;;;;;;27.52;64.26;99864.22;31425880;28;20087;-81
2023/09/01 04:51:48;;;;;;;22.98;12.68;;;;;;;28.22;62.21;99877.56;31425030;28;20080;-81
2023/09/01 05:06:50;;;;;;;23.57;13.77;;;;;;;28.16;60.80;99897.19;31415236;28;20049;-82
2023/09/01 05:21:52;;;;;;;26.37;13.80;;;;;;;28.32;60.54;99881.34;31425096;28;20140;-82
2023/09/01 05:36:56;;;;;;;24.57;13.23;;;;;;;28.75;60.35;99886.28;31432608;28;20049;-80
2023/09/01 05:52:00;;;;;;;23.83;12.52;;;;;;;29.18;60.97;99889.13;31421704;28;20067;-82
2023/09/01 06:07:04;;;;;;;20.27;12.07;;;;;;;29.33;62.27;99908.00;31418065;28;20045;-82
2023/09/01 06:22:06;;;;;;;25.33;13.15;;;;;;;29.83;62.15;99911.31;31431926;28;20387;-83
2023/09/01 06:37:09;;;;;;;22.90;12.00;;;;;;;30.05;63.06;99919.03;31424154;28;20052;-80
2023/09/01 06:52:13;;;;;;;22.98;15.02;;;;;;;31.04;63.41;99904.16;31381050;28;20055;-81
2023/09/01 07:07:15;;;;;;;18.20;12.43;;;;;;;32.10;63.18;99895.19;31371245;28;20506;-76
2023/09/01 07:22:17;;;;;;;22.60;12.75;;;;;;;32.60;62.70;99878.25;31413754;28;20502;-83
2023/09/01 07:37:19;;;;;;;20.83;13.55;;;;;;;33.44;62.88;99878.06;31399256;28;20533;-79
2023/09/01 07:52:21;;;;;;;22.02;12.85;;;;;;;33.25;69.88;99883.53;31381107;28;20052;-82
2023/09/01 08:07:24;;;;;;;22.73;11.10;;;;;;;34.41;67.00;99887.63;31388130;28;20045;-84
2023/09/01 08:22:26;;;;;;;24.80;12.27;;;;;;;35.09;62.96;99882.03;31366461;28;20107;-76
2023/09/01 08:37:28;;;;;;;15.40;9.60;;;;;;;35.35;62.18;99880.38;31381848;28;20048;-75
2023/09/01 08:52:33;;;;;;;18.15;9.07;;;;;;;34.58;63.16;99886.03;31390444;28;20258;-82
2023/09/01 09:07:35;;;;;;;16.38;10.43;;;;;;;34.60;61.31;99897.44;31399548;28;20060;-86
2023/09/01 09:22:51;;;;;;;13.50;8.40;;;;;;;34.27;65.65;99899.88;31416387;28;20651;-79
2023/09/01 09:37:58;;;;;;;7.30;6.35;;;;;;;35.19;62.85;99896.88;31349545;28;20076;-73
2023/09/01 09:53:02;;;;;;;16.70;7.68;;;;;;;35.01;64.14;99887.06;31357751;28;20140;-84
2023/09/01 10:08:07;;;;;;;13.52;7.65;;;;;;;34.91;65.65;99877.91;31377047;28;20056;-86
2023/09/01 10:23:11;;;;;;;13.15;7.43;;;;;;;35.42;63.67;99868.94;31362568;28;20048;-76
2023/09/01 10:38:17;;;;;;;11.40;7.90;;;;;;;35.58;64.61;99857.28;31374064;28;20047;-81
2023/09/01 10:53:30;;;;;;;14.85;7.47;;;;;;;35.95;59.28;99835.13;31353874;28;20053;-79
2023/09/01 11:08:32;;;;;;;10.95;6.75;;;;;;;37.22;58.12;99828.63;31354150;28;20059;-78
2023/09/01 11:23:34;;;;;;;11.60;6.05;;;;;;;37.18;56.19;99774.59;31366077;28;20084;-84
2023/09/01 11:38:38;;;;;;;11.95;6.43;;;;;;;35.29;58.30;99742.44;31385842;28;20486;-93
2023/09/01 11:53:40;;;;;;;16.73;9.48;;;;;;;34.02;62.32;99787.47;31395565;28;20158;-75
2023/09/01 12:08:43;;;;;;;11.30;8.35;;;;;;;33.30;70.27;99817.88;31378997;28;20057;-76
2023/09/01 12:23:46;;;;;;;19.95;11.07;;;;;;;32.71;88.30;99771.00;31385295;28;20135;-78
2023/09/01 12:38:48;;;;;;;16.85;11.32;;;;;;;32.37;100.00;99766.16;31374759;28;20151;-77
2023/09/01 12:53:50;;;;;;;16.77;13.35;;;;;;;32.38;100.00;99837.09;31368128;28;20068;-77
2023/09/01 13:08:52;;;;;;;28.27;14.55;;;;;;;32.37;96.21;99861.66;31355409;28;20094;-73
2023/09/01 13:23:54;;;;;;;14.23;9.27;;;;;;;30.98;93.45;99844.78;31372763;28;20512;-84
2023/09/01 13:38:56;;;;;;;14.73;8.93;;;;;;;31.00;89.86;99881.38;31391378;28;20491;-82
2023/09/01 13:53:59;;;;;;;11.25;7.57;;;;;;;30.29;90.10;99844.19;31425708;28;20105;-80
2023/09/01 14:09:04;;;;;;;42.75;28.10;;;;;;;29.75;95.28;99763.06;31418211;28;20414;-85
2023/09/01 14:24:10;;;;;;;11.35;8.07;;;;;;;30.00;90.30;99765.31;31366523;28;20040;-74
2023/09/01 14:39:13;;;;;;;11.77;8.85;;;;;;;29.82;93.11;99756.72;31356216;28;20048;-74
2023/09/01 14:54:15;;;;;;;16.38;9.00;;;;;;;29.61;97.91;99809.28;31383174;28;20053;-86
2023/09/01 15:09:17;;;;;;;21.13;9.75;;;;;;;29.53;97.72;99848.44;31404316;28;20048;-85
2023/09/01 15:24:19;;;;;;;16.35;9.38;;;;;;;29.30;89.72;99909.09;31360865;28;20491;-82
2023/09/01 15:39:24;;;;;;;;;;;;;;;29.42;79.76;99969.03;31360648;28;20059;-80
2023/09/01 15:54:26;;;;;;;58.00;33.55;;;;;;;29.36;83.93;99987.97;31407272;28;19928;-91
2023/09/01 16:09:28;;;;;;;19.80;10.45;;;;;;;29.40;85.57;99993.97;31392493;28;20049;-77
2023/09/01 16:24:30;;;;;;;16.30;10.23;;;;;;;29.38;85.76;99988.16;31429891;28;20049;-78
2023/09/01 16:39:32;;;;;;;20.30;11.55;;;;;;;29.07;88.59;99997.69;31380380;28;20522;-76
2023/09/01 16:54:34;;;;;;;17.87;10.47;;;;;;;29.00;89.73;99981.63;31405244;28;20079;-75
2023/09/01 17:09:36;;;;;;;17.52;11.05;;;;;;;28.81;92.43;100021.00;31374967;28;20513;-76
2023/09/01 17:24:38;;;;;;;20.10;11.50;;;;;;;28.72;95.38;100060.53;31372957;28;20049;-77
2023/09/01 17:39:41;;;;;;;;;;;;;;;28.81;98.24;100082.44;31374519;28;20080;-74
2023/09/01 17:54:43;;;;;;;29.00;16.92;;;;;;;28.84;96.51;100124.00;31362844;28;20011;-78
2023/09/01 18:09:46;;;;;;;32.63;16.98;;;;;;;28.91;97.67;100153.28;31357957;28;20397;-78
2023/09/01 18:24:49;;;;;;;23.83;14.97;;;;;;;28.94;99.55;100129.09;31377419;28;20124;-77
2023/09/01 18:39:52;;;;;;;25.05;15.25;;;;;;;28.77;100.00;100135.84;31392539;28;20049;-77
2023/09/01 18:54:53;;;;;;;;;;;;;;;28.64;100.00;100107.94;31349608;28;20135;-78
2023/09/01 19:09:55;;;;;;;23.38;15.63;;;;;;;28.15;100.00;100097.34;31360934;28;19984;-80
2023/09/01 19:24:58;;;;;;;28.60;15.43;;;;;;;28.04;100.00;100086.44;31365815;28;20057;-77
2023/09/01 19:40:00;;;;;;;32.65;16.88;;;;;;;27.76;100.00;100077.91;31373536;28;20088;-80
2023/09/01 19:55:09;;;;;;;24.53;13.97;;;;;;;27.46;100.00;100095.69;31356322;28;20135;-77
2023/09/01 20:10:22;;;;;;;26.45;17.00;;;;;;;27.32;100.00;100116.50;31363502;28;20537;-78
2023/09/01 20:25:25;;;;;;;26.38;15.13;;;;;;;27.28;100.00;100130.00;31383898;28;20124;-78
2023/09/01 20:40:28;;;;;;;30.10;18.02;;;;;;;27.14;100.00;100131.28;31390273;28;20133;-78
2023/09/01 20:55:30;;;;;;;35.87;21.77;;;;;;;27.20;100.00;100112.41;31383581;28;20566;-75
2023/09/01 21:10:32;;;;;;;33.60;20.53;;;;;;;27.06;100.00;100102.53;31381423;28;20083;-77
2023/09/01 21:25:34;;;;;;;31.27;21.03;;;;;;;26.92;100.00;100098.19;31393174;28;20069;-78
2023/09/01 21:40:36;;;;;;;34.73;19.27;;;;;;;26.73;100.00;100092.66;31374459;28;20056;-76
2023/09/01 21:55:38;;;;;;;31.57;18.77;;;;;;;26.75;100.00;100098.44;31366891;28;20045;-76
2023/09/01 22:10:40;;;;;;;31.73;19.37;;;;;;;26.68;100.00;100119.31;31367840;28;20091;-75
2023/09/01 22:25:42;;;;;;;31.35;20.83;;;;;;;26.48;100.00;100108.72;31367061;28;20140;-75
2023/09/01 22:40:47;;;;;;;32.27;21.53;;;;;;;26.39;100.00;100121.00;31357629;28;20068;-76
2023/09/01 22:55:49;;;;;;;35.33;21.02;;;;;;;26.35;100.00;100111.47;31362068;28;20140;-75
2023/09/01 23:10:51;;;;;;;33.63;21.60;;;;;;;26.26;100.00;100112.56;31335934;28;20164;-76
2023/09/01 23:25:53;;;;;;;35.00;21.92;;;;;;;25.95;100.00;100111.22;31355850;28;20128;-76
2023/09/01 23:40:55;;;;;;;42.03;23.95;;;;;;;25.90;100.00;100103.69;31368669;28;20419;-75
2023/09/01 23:55:59;;;;;;;40.42;23.48;;;;;;;25.73;100.00;100111.47;31362563;28;20103;-75
